sensor_id;sensor_type;location;lat;lon;timestamp;temperature;humidity
40758;DHT22;26462;47.384;19.218;2023-05-07T00:01:14;16.90;99.90
40758;DHT22;26462;47.384;19.218;2023-05-07T00:03:41;16.90;99.90
40758;DHT22;26462;47.384;19.218;2023-05-07T00:06:08;16.90;99.90
40758;DHT22;26462;47.384;19.218;2023-05-07T00:08:36;16.90;99.90
40758;DHT22;26462;47.384;19.218;2023-05-07T00:11:03;16.90;99.90
40758;DHT22;26462;47.384;19.218;2023-05-07T00:13:31;16.80;99.90
40758;DHT22;26462;47.384;19.218;2023-05-07T00:16:02;16.80;99.90
40758;DHT22;26462;47.384;19.218;2023-05-07T00:18:29;16.80;99.90
40758;DHT22;26462;47.384;19.218;2023-05-07T00:20:56;16.80;99.90
40758;DHT22;26462;47.384;19.218;2023-05-07T00:23:23;16.80;99.90
40758;DHT22;26462;47.384;19.218;2023-05-07T00:25:50;16.70;99.90
40758;DHT22;26462;47.384;19.218;2023-05-07T00:28:17;16.70;99.90
40758;DHT22;26462;47.384;19.218;2023-05-07T00:30:44;16.70;99.90
40758;DHT22;26462;47.384;19.218;2023-05-07T00:33:11;16.60;99.90
40758;DHT22;26462;47.384;19.218;2023-05-07T00:35:38;16.60;99.90
40758;DHT22;26462;47.384;19.218;2023-05-07T00:38:05;16.50;99.90
40758;DHT22;26462;47.384;19.218;2023-05-07T00:40:32;16.50;99.90
40758;DHT22;26462;47.384;19.218;2023-05-07T00:42:59;16.50;99.90
40758;DHT22;26462;47.384;19.218;2023-05-07T00:45:26;16.50;99.90
40758;DHT22;26462;47.384;19.218;2023-05-07T00:47:55;16.50;99.90
40758;DHT22;26462;47.384;19.218;2023-05-07T00:50:22;16.50;99.90
40758;DHT22;26462;47.384;19.218;2023-05-07T00:52:49;16.40;99.90
40758;DHT22;26462;47.384;19.218;2023-05-07T00:55:16;16.40;99.90
40758;DHT22;26462;47.384;19.218;2023-05-07T00:57:43;16.30;99.90
40758;DHT22;26462;47.384;19.218;2023-05-07T01:00:12;16.30;99.90
40758;DHT22;26462;47.384;19.218;2023-05-07T01:02:41;16.30;99.90
40758;DHT22;26462;47.384;19.218;2023-05-07T01:05:10;16.30;99.90
40758;DHT22;26462;47.384;19.218;2023-05-07T01:07:39;16.20;99.90
40758;DHT22;26462;47.384;19.218;2023-05-07T01:10:06;16.20;99.90
40758;DHT22;26462;47.384;19.218;2023-05-07T01:12:34;16.20;99.90
40758;DHT22;26462;47.384;19.218;2023-05-07T01:15:02;16.10;99.90
40758;DHT22;26462;47.384;19.218;2023-05-07T01:17:34;16.10;99.90
40758;DHT22;26462;47.384;19.218;2023-05-07T01:20:02;16.10;99.90
40758;DHT22;26462;47.384;19.218;2023-05-07T01:22:31;16.00;99.90
40758;DHT22;26462;47.384;19.218;2023-05-07T01:24:59;16.10;99.90
40758;DHT22;26462;47.384;19.218;2023-05-07T01:27:29;16.00;99.90
40758;DHT22;26462;47.384;19.218;2023-05-07T01:29:56;16.00;99.90
40758;DHT22;26462;47.384;19.218;2023-05-07T01:32:33;15.90;99.90
40758;DHT22;26462;47.384;19.218;2023-05-07T01:35:02;16.00;99.90
40758;DHT22;26462;47.384;19.218;2023-05-07T01:37:29;15.90;99.90
40758;DHT22;26462;47.384;19.218;2023-05-07T01:39:57;15.90;99.90
40758;DHT22;26462;47.384;19.218;2023-05-07T01:42:24;15.80;99.90
40758;DHT22;26462;47.384;19.218;2023-05-07T01:44:51;15.80;99.90
40758;DHT22;26462;47.384;19.218;2023-05-07T01:47:18;15.80;99.90
40758;DHT22;26462;47.384;19.218;2023-05-07T01:49:47;15.80;99.90
40758;DHT22;26462;47.384;19.218;2023-05-07T01:52:14;15.80;99.90
40758;DHT22;26462;47.384;19.218;2023-05-07T01:54:41;15.70;99.90
40758;DHT22;26462;47.384;19.218;2023-05-07T01:57:08;15.70;99.90
40758;DHT22;26462;47.384;19.218;2023-05-07T01:59:36;15.70;99.90
40758;DHT22;26462;47.384;19.218;2023-05-07T02:02:03;15.70;99.90
40758;DHT22;26462;47.384;19.218;2023-05-07T02:04:31;15.60;99.90
40758;DHT22;26462;47.384;19.218;2023-05-07T02:06:58;15.60;99.90
40758;DHT22;26462;47.384;19.218;2023-05-07T02:09:26;15.60;99.90
40758;DHT22;26462;47.384;19.218;2023-05-07T02:11:53;15.60;99.90
40758;DHT22;26462;47.384;19.218;2023-05-07T02:14:21;15.50;99.90
40758;DHT22;26462;47.384;19.218;2023-05-07T02:16:48;15.50;99.90
40758;DHT22;26462;47.384;19.218;2023-05-07T02:19:15;15.40;99.90
40758;DHT22;26462;47.384;19.218;2023-05-07T02:21:42;15.50;99.90
40758;DHT22;26462;47.384;19.218;2023-05-07T02:24:09;15.50;99.90
40758;DHT22;26462;47.384;19.218;2023-05-07T02:26:36;15.40;99.90
40758;DHT22;26462;47.384;19.218;2023-05-07T02:29:03;15.30;99.90
40758;DHT22;26462;47.384;19.218;2023-05-07T02:31:31;15.30;99.90
40758;DHT22;26462;47.384;19.218;2023-05-07T02:34:00;15.30;99.90
40758;DHT22;26462;47.384;19.218;2023-05-07T02:36:27;15.30;99.90
40758;DHT22;26462;47.384;19.218;2023-05-07T02:39:03;15.20;99.90
40758;DHT22;26462;47.384;19.218;2023-05-07T02:41:30;15.20;99.90
40758;DHT22;26462;47.384;19.218;2023-05-07T02:43:57;15.20;99.90
40758;DHT22;26462;47.384;19.218;2023-05-07T02:46:25;15.20;99.90
40758;DHT22;26462;47.384;19.218;2023-05-07T02:48:59;15.20;99.90
40758;DHT22;26462;47.384;19.218;2023-05-07T02:51:26;15.10;99.90
40758;DHT22;26462;47.384;19.218;2023-05-07T02:53:56;15.10;99.90
40758;DHT22;26462;47.384;19.218;2023-05-07T02:56:25;15.10;99.90
40758;DHT22;26462;47.384;19.218;2023-05-07T02:58:52;15.10;99.90
40758;DHT22;26462;47.384;19.218;2023-05-07T03:01:22;15.10;99.90
40758;DHT22;26462;47.384;19.218;2023-05-07T03:03:59;15.10;99.90
40758;DHT22;26462;47.384;19.218;2023-05-07T03:06:26;15.10;99.90
40758;DHT22;26462;47.384;19.218;2023-05-07T03:08:53;15.00;99.90
40758;DHT22;26462;47.384;19.218;2023-05-07T03:11:20;15.00;99.90
40758;DHT22;26462;47.384;19.218;2023-05-07T03:13:47;15.00;99.90
40758;DHT22;26462;47.384;19.218;2023-05-07T03:16:18;14.90;99.90
40758;DHT22;26462;47.384;19.218;2023-05-07T03:18:45;14.90;99.90
40758;DHT22;26462;47.384;19.218;2023-05-07T03:21:12;14.90;99.90
40758;DHT22;26462;47.384;19.218;2023-05-07T03:23:39;14.90;99.90
40758;DHT22;26462;47.384;19.218;2023-05-07T03:26:07;14.90;99.90
40758;DHT22;26462;47.384;19.218;2023-05-07T03:28:34;14.90;99.90
40758;DHT22;26462;47.384;19.218;2023-05-07T03:31:04;14.90;99.90
40758;DHT22;26462;47.384;19.218;2023-05-07T03:33:32;14.90;99.90
40758;DHT22;26462;47.384;19.218;2023-05-07T03:35:59;14.90;99.90
40758;DHT22;26462;47.384;19.218;2023-05-07T03:38:27;14.90;99.90
40758;DHT22;26462;47.384;19.218;2023-05-07T03:40:54;14.90;99.90
40758;DHT22;26462;47.384;19.218;2023-05-07T03:43:21;14.90;99.90
40758;DHT22;26462;47.384;19.218;2023-05-07T03:45:56;14.90;99.90
40758;DHT22;26462;47.384;19.218;2023-05-07T03:48:25;15.00;99.90
40758;DHT22;26462;47.384;19.218;2023-05-07T03:50:55;14.90;99.90
40758;DHT22;26462;47.384;19.218;2023-05-07T03:53:24;14.90;99.90
40758;DHT22;26462;47.384;19.218;2023-05-07T03:55:51;14.90;99.90
40758;DHT22;26462;47.384;19.218;2023-05-07T03:58:19;15.00;99.90
40758;DHT22;26462;47.384;19.218;2023-05-07T04:00:46;15.00;99.90
40758;DHT22;26462;47.384;19.218;2023-05-07T04:03:24;15.00;99.90
40758;DHT22;26462;47.384;19.218;2023-05-07T04:05:52;15.00;99.90
40758;DHT22;26462;47.384;19.218;2023-05-07T04:08:20;15.00;99.90
40758;DHT22;26462;47.384;19.218;2023-05-07T04:10:54;14.90;99.90
40758;DHT22;26462;47.384;19.218;2023-05-07T04:13:21;15.00;99.90
40758;DHT22;26462;47.384;19.218;2023-05-07T04:15:48;15.00;99.90
40758;DHT22;26462;47.384;19.218;2023-05-07T04:18:17;15.00;99.90
40758;DHT22;26462;47.384;19.218;2023-05-07T04:20:47;15.00;99.90
40758;DHT22;26462;47.384;19.218;2023-05-07T04:23:14;15.00;99.90
40758;DHT22;26462;47.384;19.218;2023-05-07T04:25:42;15.00;99.90
40758;DHT22;26462;47.384;19.218;2023-05-07T04:28:18;15.00;99.90
40758;DHT22;26462;47.384;19.218;2023-05-07T04:30:45;15.00;99.90
40758;DHT22;26462;47.384;19.218;2023-05-07T04:33:13;15.00;99.90
40758;DHT22;26462;47.384;19.218;2023-05-07T04:35:41;14.90;99.90
40758;DHT22;26462;47.384;19.218;2023-05-07T04:38:09;15.00;99.90
40758;DHT22;26462;47.384;19.218;2023-05-07T04:40:36;15.00;99.90
40758;DHT22;26462;47.384;19.218;2023-05-07T04:43:03;15.10;99.90
40758;DHT22;26462;47.384;19.218;2023-05-07T04:45:37;15.20;99.90
40758;DHT22;26462;47.384;19.218;2023-05-07T04:48:08;15.20;99.90
40758;DHT22;26462;47.384;19.218;2023-05-07T04:50:38;15.40;99.90
40758;DHT22;26462;47.384;19.218;2023-05-07T04:53:06;15.50;99.90
40758;DHT22;26462;47.384;19.218;2023-05-07T04:55:34;15.70;99.90
40758;DHT22;26462;47.384;19.218;2023-05-07T04:58:01;15.70;99.90
40758;DHT22;26462;47.384;19.218;2023-05-07T05:00:31;15.90;99.90
40758;DHT22;26462;47.384;19.218;2023-05-07T05:03:02;16.00;99.90
40758;DHT22;26462;47.384;19.218;2023-05-07T05:05:30;16.10;99.90
40758;DHT22;26462;47.384;19.218;2023-05-07T05:07:58;16.20;99.90
40758;DHT22;26462;47.384;19.218;2023-05-07T05:10:25;16.40;99.90
40758;DHT22;26462;47.384;19.218;2023-05-07T05:12:52;16.40;99.90
40758;DHT22;26462;47.384;19.218;2023-05-07T05:15:21;16.40;99.90
40758;DHT22;26462;47.384;19.218;2023-05-07T05:17:48;16.40;99.90
40758;DHT22;26462;47.384;19.218;2023-05-07T05:20:15;16.40;99.90
40758;DHT22;26462;47.384;19.218;2023-05-07T05:22:42;16.60;99.90
40758;DHT22;26462;47.384;19.218;2023-05-07T05:25:11;16.70;99.90
40758;DHT22;26462;47.384;19.218;2023-05-07T05:27:38;16.80;99.90
40758;DHT22;26462;47.384;19.218;2023-05-07T05:30:07;16.90;99.90
40758;DHT22;26462;47.384;19.218;2023-05-07T05:32:38;17.50;99.90
40758;DHT22;26462;47.384;19.218;2023-05-07T05:35:06;16.90;99.90
40758;DHT22;26462;47.384;19.218;2023-05-07T05:37:33;16.90;99.90
40758;DHT22;26462;47.384;19.218;2023-05-07T05:40:03;16.90;99.90
40758;DHT22;26462;47.384;19.218;2023-05-07T05:42:30;17.00;99.90
40758;DHT22;26462;47.384;19.218;2023-05-07T05:44:58;17.20;99.90
40758;DHT22;26462;47.384;19.218;2023-05-07T05:47:26;17.30;99.90
40758;DHT22;26462;47.384;19.218;2023-05-07T05:49:55;17.40;99.90
40758;DHT22;26462;47.384;19.218;2023-05-07T05:52:22;17.50;99.90
40758;DHT22;26462;47.384;19.218;2023-05-07T05:54:51;17.70;99.90
40758;DHT22;26462;47.384;19.218;2023-05-07T05:57:19;17.90;99.90
40758;DHT22;26462;47.384;19.218;2023-05-07T05:59:46;18.10;99.90
40758;DHT22;26462;47.384;19.218;2023-05-07T06:02:14;18.00;99.90
40758;DHT22;26462;47.384;19.218;2023-05-07T06:04:41;18.10;99.90
40758;DHT22;26462;47.384;19.218;2023-05-07T06:07:13;18.30;99.90
40758;DHT22;26462;47.384;19.218;2023-05-07T06:09:42;18.30;99.90
40758;DHT22;26462;47.384;19.218;2023-05-07T06:12:17;18.50;99.90
40758;DHT22;26462;47.384;19.218;2023-05-07T06:14:46;18.60;99.90
40758;DHT22;26462;47.384;19.218;2023-05-07T06:17:13;18.60;99.90
40758;DHT22;26462;47.384;19.218;2023-05-07T06:19:40;18.70;99.90
40758;DHT22;26462;47.384;19.218;2023-05-07T06:22:08;18.80;99.90
40758;DHT22;26462;47.384;19.218;2023-05-07T06:24:35;18.90;99.90
40758;DHT22;26462;47.384;19.218;2023-05-07T06:27:06;19.10;99.90
40758;DHT22;26462;47.384;19.218;2023-05-07T06:29:33;19.50;99.90
40758;DHT22;26462;47.384;19.218;2023-05-07T06:32:10;18.80;99.90
40758;DHT22;26462;47.384;19.218;2023-05-07T06:34:40;19.10;99.90
40758;DHT22;26462;47.384;19.218;2023-05-07T06:37:07;19.50;99.90
40758;DHT22;26462;47.384;19.218;2023-05-07T06:40:00;19.40;99.40
40758;DHT22;26462;47.384;19.218;2023-05-07T06:42:29;19.40;98.90
40758;DHT22;26462;47.384;19.218;2023-05-07T06:45:04;19.10;98.90
40758;DHT22;26462;47.384;19.218;2023-05-07T06:47:31;19.20;98.50
40758;DHT22;26462;47.384;19.218;2023-05-07T06:49:58;19.30;98.30
40758;DHT22;26462;47.384;19.218;2023-05-07T06:52:30;19.40;98.30
40758;DHT22;26462;47.384;19.218;2023-05-07T06:54:57;19.30;98.40
40758;DHT22;26462;47.384;19.218;2023-05-07T06:57:26;19.10;98.20
40758;DHT22;26462;47.384;19.218;2023-05-07T06:59:53;19.20;97.00
40758;DHT22;26462;47.384;19.218;2023-05-07T07:02:21;19.10;97.70
40758;DHT22;26462;47.384;19.218;2023-05-07T07:04:49;19.20;98.90
40758;DHT22;26462;47.384;19.218;2023-05-07T07:07:16;19.30;99.10
40758;DHT22;26462;47.384;19.218;2023-05-07T07:09:45;19.20;99.10
40758;DHT22;26462;47.384;19.218;2023-05-07T07:12:15;19.30;98.30
40758;DHT22;26462;47.384;19.218;2023-05-07T07:14:42;19.50;97.30
40758;DHT22;26462;47.384;19.218;2023-05-07T07:17:09;19.70;96.40
40758;DHT22;26462;47.384;19.218;2023-05-07T07:19:36;19.90;97.30
40758;DHT22;26462;47.384;19.218;2023-05-07T07:22:04;19.90;97.40
40758;DHT22;26462;47.384;19.218;2023-05-07T07:24:32;19.50;97.50
40758;DHT22;26462;47.384;19.218;2023-05-07T07:27:02;19.90;98.50
40758;DHT22;26462;47.384;19.218;2023-05-07T07:29:32;19.80;99.50
40758;DHT22;26462;47.384;19.218;2023-05-07T07:31:59;20.00;99.90
40758;DHT22;26462;47.384;19.218;2023-05-07T07:34:27;19.70;99.90
40758;DHT22;26462;47.384;19.218;2023-05-07T07:36:54;19.80;99.70
40758;DHT22;26462;47.384;19.218;2023-05-07T07:39:23;19.80;99.90
40758;DHT22;26462;47.384;19.218;2023-05-07T07:41:53;19.90;99.90
40758;DHT22;26462;47.384;19.218;2023-05-07T07:44:21;20.10;99.90
40758;DHT22;26462;47.384;19.218;2023-05-07T07:46:52;19.40;99.20
40758;DHT22;26462;47.384;19.218;2023-05-07T07:49:21;20.10;97.70
40758;DHT22;26462;47.384;19.218;2023-05-07T07:51:49;20.30;97.30
40758;DHT22;26462;47.384;19.218;2023-05-07T07:54:16;21.30;97.20
40758;DHT22;26462;47.384;19.218;2023-05-07T07:56:44;20.50;97.20
40758;DHT22;26462;47.384;19.218;2023-05-07T07:59:12;20.50;96.60
40758;DHT22;26462;47.384;19.218;2023-05-07T08:01:45;20.40;96.70
40758;DHT22;26462;47.384;19.218;2023-05-07T08:04:15;20.00;94.70
40758;DHT22;26462;47.384;19.218;2023-05-07T08:06:43;20.50;95.20
40758;DHT22;26462;47.384;19.218;2023-05-07T08:09:11;20.30;92.50
40758;DHT22;26462;47.384;19.218;2023-05-07T08:11:40;20.30;93.00
40758;DHT22;26462;47.384;19.218;2023-05-07T08:14:07;20.80;92.60
40758;DHT22;26462;47.384;19.218;2023-05-07T08:16:37;20.30;91.30
40758;DHT22;26462;47.384;19.218;2023-05-07T08:19:04;20.40;91.60
40758;DHT22;26462;47.384;19.218;2023-05-07T08:21:31;20.40;91.60
40758;DHT22;26462;47.384;19.218;2023-05-07T08:24:00;20.40;91.80
40758;DHT22;26462;47.384;19.218;2023-05-07T08:26:28;20.20;92.30
40758;DHT22;26462;47.384;19.218;2023-05-07T08:28:56;19.70;92.50
40758;DHT22;26462;47.384;19.218;2023-05-07T08:31:23;20.60;93.70
40758;DHT22;26462;47.384;19.218;2023-05-07T08:33:52;20.50;94.50
40758;DHT22;26462;47.384;19.218;2023-05-07T08:36:20;20.50;95.00
40758;DHT22;26462;47.384;19.218;2023-05-07T08:38:47;20.60;95.20
40758;DHT22;26462;47.384;19.218;2023-05-07T08:41:14;20.40;95.30
40758;DHT22;26462;47.384;19.218;2023-05-07T08:43:46;19.90;93.40
40758;DHT22;26462;47.384;19.218;2023-05-07T08:46:18;20.20;92.50
40758;DHT22;26462;47.384;19.218;2023-05-07T08:48:50;20.30;93.10
40758;DHT22;26462;47.384;19.218;2023-05-07T08:51:19;20.20;93.00
40758;DHT22;26462;47.384;19.218;2023-05-07T08:53:47;20.20;93.60
40758;DHT22;26462;47.384;19.218;2023-05-07T08:56:23;20.20;94.50
40758;DHT22;26462;47.384;19.218;2023-05-07T08:58:52;20.10;94.70
40758;DHT22;26462;47.384;19.218;2023-05-07T09:01:24;20.10;94.90
40758;DHT22;26462;47.384;19.218;2023-05-07T09:03:52;20.10;94.60
40758;DHT22;26462;47.384;19.218;2023-05-07T09:06:21;20.10;94.00
40758;DHT22;26462;47.384;19.218;2023-05-07T09:08:51;19.00;93.60
40758;DHT22;26462;47.384;19.218;2023-05-07T09:11:21;20.20;94.00
40758;DHT22;26462;47.384;19.218;2023-05-07T09:13:55;20.20;93.70
40758;DHT22;26462;47.384;19.218;2023-05-07T09:16:24;20.30;94.30
40758;DHT22;26462;47.384;19.218;2023-05-07T09:18:53;20.30;94.30
40758;DHT22;26462;47.384;19.218;2023-05-07T09:21:21;20.30;93.70
40758;DHT22;26462;47.384;19.218;2023-05-07T09:23:53;20.40;93.00
40758;DHT22;26462;47.384;19.218;2023-05-07T09:26:31;20.40;92.30
40758;DHT22;26462;47.384;19.218;2023-05-07T09:29:00;20.60;92.20
40758;DHT22;26462;47.384;19.218;2023-05-07T09:31:28;20.70;92.40
40758;DHT22;26462;47.384;19.218;2023-05-07T09:33:57;20.80;93.10
40758;DHT22;26462;47.384;19.218;2023-05-07T09:36:27;21.00;91.70
40758;DHT22;26462;47.384;19.218;2023-05-07T09:38:58;21.00;91.10
40758;DHT22;26462;47.384;19.218;2023-05-07T09:41:28;21.00;91.10
40758;DHT22;26462;47.384;19.218;2023-05-07T09:44:07;20.20;90.30
40758;DHT22;26462;47.384;19.218;2023-05-07T09:46:41;21.10;90.10
40758;DHT22;26462;47.384;19.218;2023-05-07T09:49:19;21.20;88.90
40758;DHT22;26462;47.384;19.218;2023-05-07T09:51:49;21.30;90.00
40758;DHT22;26462;47.384;19.218;2023-05-07T09:54:19;21.50;87.40
40758;DHT22;26462;47.384;19.218;2023-05-07T09:56:49;21.70;88.60
40758;DHT22;26462;47.384;19.218;2023-05-07T09:59:22;22.20;88.60
40758;DHT22;26462;47.384;19.218;2023-05-07T10:01:49;22.20;85.40
40758;DHT22;26462;47.384;19.218;2023-05-07T10:04:18;22.20;85.20
40758;DHT22;26462;47.384;19.218;2023-05-07T10:06:47;22.50;84.60
40758;DHT22;26462;47.384;19.218;2023-05-07T10:09:15;22.50;83.60
40758;DHT22;26462;47.384;19.218;2023-05-07T10:11:42;22.40;83.70
40758;DHT22;26462;47.384;19.218;2023-05-07T10:14:11;22.30;84.30
40758;DHT22;26462;47.384;19.218;2023-05-07T10:16:40;21.50;83.60
40758;DHT22;26462;47.384;19.218;2023-05-07T10:19:12;22.00;85.90
40758;DHT22;26462;47.384;19.218;2023-05-07T10:21:48;22.00;84.30
40758;DHT22;26462;47.384;19.218;2023-05-07T10:24:21;22.00;85.10
40758;DHT22;26462;47.384;19.218;2023-05-07T10:26:50;21.10;84.80
40758;DHT22;26462;47.384;19.218;2023-05-07T10:34:43;21.80;84.50
40758;DHT22;26462;47.384;19.218;2023-05-07T10:37:12;21.70;84.90
40758;DHT22;26462;47.384;19.218;2023-05-07T10:39:40;22.30;87.80
40758;DHT22;26462;47.384;19.218;2023-05-07T10:42:11;21.60;88.70
40758;DHT22;26462;47.384;19.218;2023-05-07T10:44:43;21.60;89.50
40758;DHT22;26462;47.384;19.218;2023-05-07T10:47:17;21.40;90.20
40758;DHT22;26462;47.384;19.218;2023-05-07T10:52:23;21.30;90.70
40758;DHT22;26462;47.384;19.218;2023-05-07T11:01:48;21.80;91.10
40758;DHT22;26462;47.384;19.218;2023-05-07T11:04:19;20.40;90.30
40758;DHT22;26462;47.384;19.218;2023-05-07T11:07:21;21.40;90.50
40758;DHT22;26462;47.384;19.218;2023-05-07T11:15:12;21.60;90.10
40758;DHT22;26462;47.384;19.218;2023-05-07T11:17:59;21.40;90.50
40758;DHT22;26462;47.384;19.218;2023-05-07T11:26:40;21.70;88.00
40758;DHT22;26462;47.384;19.218;2023-05-07T11:29:13;21.80;88.80
40758;DHT22;26462;47.384;19.218;2023-05-07T11:31:42;21.80;90.00
40758;DHT22;26462;47.384;19.218;2023-05-07T11:34:11;21.90;88.90
40758;DHT22;26462;47.384;19.218;2023-05-07T11:36:41;22.10;86.80
40758;DHT22;26462;47.384;19.218;2023-05-07T11:39:25;22.60;87.50
40758;DHT22;26462;47.384;19.218;2023-05-07T11:41:52;22.60;83.40
40758;DHT22;26462;47.384;19.218;2023-05-07T11:44:19;22.60;82.30
40758;DHT22;26462;47.384;19.218;2023-05-07T11:46:47;22.20;80.90
40758;DHT22;26462;47.384;19.218;2023-05-07T11:49:15;22.60;80.60
40758;DHT22;26462;47.384;19.218;2023-05-07T11:51:42;22.70;78.90
40758;DHT22;26462;47.384;19.218;2023-05-07T11:54:10;22.60;77.80
40758;DHT22;26462;47.384;19.218;2023-05-07T11:56:38;22.50;78.10
40758;DHT22;26462;47.384;19.218;2023-05-07T11:59:05;22.30;76.20
40758;DHT22;26462;47.384;19.218;2023-05-07T12:01:34;23.30;78.50
40758;DHT22;26462;47.384;19.218;2023-05-07T12:04:02;22.80;77.30
40758;DHT22;26462;47.384;19.218;2023-05-07T12:06:30;22.90;76.30
40758;DHT22;26462;47.384;19.218;2023-05-07T12:08:57;22.80;75.20
40758;DHT22;26462;47.384;19.218;2023-05-07T12:11:25;23.20;75.20
40758;DHT22;26462;47.384;19.218;2023-05-07T12:13:53;23.10;75.50
40758;DHT22;26462;47.384;19.218;2023-05-07T12:16:25;22.90;73.60
40758;DHT22;26462;47.384;19.218;2023-05-07T12:18:52;23.20;73.60
40758;DHT22;26462;47.384;19.218;2023-05-07T12:21:22;24.10;73.50
40758;DHT22;26462;47.384;19.218;2023-05-07T12:23:51;23.20;74.60
40758;DHT22;26462;47.384;19.218;2023-05-07T12:26:19;23.30;73.60
40758;DHT22;26462;47.384;19.218;2023-05-07T12:28:49;23.30;75.20
40758;DHT22;26462;47.384;19.218;2023-05-07T12:31:16;23.30;75.30
40758;DHT22;26462;47.384;19.218;2023-05-07T12:33:44;23.30;74.50
40758;DHT22;26462;47.384;19.218;2023-05-07T12:39:26;23.60;71.60
40758;DHT22;26462;47.384;19.218;2023-05-07T12:42:02;23.40;72.60
40758;DHT22;26462;47.384;19.218;2023-05-07T12:44:34;23.50;70.80
40758;DHT22;26462;47.384;19.218;2023-05-07T12:47:01;23.50;72.60
40758;DHT22;26462;47.384;19.218;2023-05-07T12:49:29;23.80;71.40
40758;DHT22;26462;47.384;19.218;2023-05-07T12:51:59;23.90;71.70
40758;DHT22;26462;47.384;19.218;2023-05-07T13:00:12;24.10;67.90
40758;DHT22;26462;47.384;19.218;2023-05-07T13:02:41;23.80;68.90
40758;DHT22;26462;47.384;19.218;2023-05-07T13:05:08;24.10;69.40
40758;DHT22;26462;47.384;19.218;2023-05-07T13:08:31;23.30;69.00
40758;DHT22;26462;47.384;19.218;2023-05-07T13:11:08;23.30;70.10
40758;DHT22;26462;47.384;19.218;2023-05-07T13:21:11;22.80;70.40
40758;DHT22;26462;47.384;19.218;2023-05-07T13:27:26;22.70;71.40
40758;DHT22;26462;47.384;19.218;2023-05-07T13:29:54;22.60;70.80
40758;DHT22;26462;47.384;19.218;2023-05-07T13:32:21;22.50;70.30
40758;DHT22;26462;47.384;19.218;2023-05-07T13:35:09;22.60;71.80
40758;DHT22;26462;47.384;19.218;2023-05-07T13:37:47;22.80;70.60
40758;DHT22;26462;47.384;19.218;2023-05-07T13:40:18;22.40;70.70
40758;DHT22;26462;47.384;19.218;2023-05-07T13:43:24;22.30;71.30
40758;DHT22;26462;47.384;19.218;2023-05-07T13:47:02;22.30;70.60
40758;DHT22;26462;47.384;19.218;2023-05-07T13:50:29;22.40;70.90
40758;DHT22;26462;47.384;19.218;2023-05-07T13:53:11;22.30;69.60
40758;DHT22;26462;47.384;19.218;2023-05-07T13:55:50;22.40;70.80
40758;DHT22;26462;47.384;19.218;2023-05-07T13:58:17;22.40;69.40
40758;DHT22;26462;47.384;19.218;2023-05-07T14:06:09;22.70;70.40
40758;DHT22;26462;47.384;19.218;2023-05-07T14:13:07;22.30;68.90
40758;DHT22;26462;47.384;19.218;2023-05-07T14:16:20;22.20;69.10
40758;DHT22;26462;47.384;19.218;2023-05-07T14:23:35;22.20;69.50
40758;DHT22;26462;47.384;19.218;2023-05-07T14:29:09;22.80;67.30
40758;DHT22;26462;47.384;19.218;2023-05-07T14:32:31;22.90;67.50
40758;DHT22;26462;47.384;19.218;2023-05-07T14:35:19;23.00;66.00
40758;DHT22;26462;47.384;19.218;2023-05-07T14:38:44;23.00;66.20
40758;DHT22;26462;47.384;19.218;2023-05-07T14:43:47;22.80;67.30
40758;DHT22;26462;47.384;19.218;2023-05-07T14:46:19;22.80;67.40
40758;DHT22;26462;47.384;19.218;2023-05-07T14:48:47;22.80;67.20
40758;DHT22;26462;47.384;19.218;2023-05-07T14:51:14;22.90;67.30
40758;DHT22;26462;47.384;19.218;2023-05-07T14:53:41;23.00;66.90
40758;DHT22;26462;47.384;19.218;2023-05-07T14:56:08;23.10;67.10
40758;DHT22;26462;47.384;19.218;2023-05-07T14:58:35;24.00;67.10
40758;DHT22;26462;47.384;19.218;2023-05-07T15:01:03;23.00;65.70
40758;DHT22;26462;47.384;19.218;2023-05-07T15:03:30;22.90;66.00
40758;DHT22;26462;47.384;19.218;2023-05-07T15:05:57;22.80;66.80
40758;DHT22;26462;47.384;19.218;2023-05-07T15:08:24;22.60;66.80
40758;DHT22;26462;47.384;19.218;2023-05-07T15:10:50;22.60;67.10
40758;DHT22;26462;47.384;19.218;2023-05-07T15:13:18;22.40;67.30
40758;DHT22;26462;47.384;19.218;2023-05-07T15:15:45;22.40;67.90
40758;DHT22;26462;47.384;19.218;2023-05-07T15:18:12;22.30;68.00
40758;DHT22;26462;47.384;19.218;2023-05-07T15:20:39;22.30;68.50
40758;DHT22;26462;47.384;19.218;2023-05-07T15:23:07;22.20;68.20
40758;DHT22;26462;47.384;19.218;2023-05-07T15:25:40;22.10;68.10
40758;DHT22;26462;47.384;19.218;2023-05-07T15:28:07;22.10;68.50
40758;DHT22;26462;47.384;19.218;2023-05-07T15:30:35;22.20;68.50
40758;DHT22;26462;47.384;19.218;2023-05-07T15:33:03;22.40;68.70
40758;DHT22;26462;47.384;19.218;2023-05-07T15:35:30;22.20;68.80
40758;DHT22;26462;47.384;19.218;2023-05-07T15:37:57;22.20;68.70
40758;DHT22;26462;47.384;19.218;2023-05-07T15:40:24;22.20;68.70
40758;DHT22;26462;47.384;19.218;2023-05-07T15:42:54;22.20;69.20
40758;DHT22;26462;47.384;19.218;2023-05-07T15:45:21;22.30;69.10
40758;DHT22;26462;47.384;19.218;2023-05-07T15:47:48;22.20;69.60
40758;DHT22;26462;47.384;19.218;2023-05-07T15:50:15;22.20;69.60
40758;DHT22;26462;47.384;19.218;2023-05-07T15:52:42;22.30;69.90
40758;DHT22;26462;47.384;19.218;2023-05-07T15:55:11;22.10;70.20
40758;DHT22;26462;47.384;19.218;2023-05-07T15:57:38;22.10;70.40
40758;DHT22;26462;47.384;19.218;2023-05-07T16:00:06;21.90;70.70
40758;DHT22;26462;47.384;19.218;2023-05-07T16:02:38;21.80;71.60
40758;DHT22;26462;47.384;19.218;2023-05-07T16:05:06;21.70;71.60
40758;DHT22;26462;47.384;19.218;2023-05-07T16:07:35;21.60;70.80
40758;DHT22;26462;47.384;19.218;2023-05-07T16:10:03;21.60;71.20
40758;DHT22;26462;47.384;19.218;2023-05-07T16:12:30;21.60;71.20
40758;DHT22;26462;47.384;19.218;2023-05-07T16:14:57;21.60;71.70
40758;DHT22;26462;47.384;19.218;2023-05-07T16:17:24;21.50;71.40
40758;DHT22;26462;47.384;19.218;2023-05-07T16:19:52;21.60;71.80
40758;DHT22;26462;47.384;19.218;2023-05-07T16:22:19;21.60;71.50
40758;DHT22;26462;47.384;19.218;2023-05-07T16:24:46;21.50;71.70
40758;DHT22;26462;47.384;19.218;2023-05-07T16:27:13;21.20;71.90
40758;DHT22;26462;47.384;19.218;2023-05-07T16:29:41;21.50;69.90
40758;DHT22;26462;47.384;19.218;2023-05-07T16:32:08;21.40;69.50
40758;DHT22;26462;47.384;19.218;2023-05-07T16:34:36;21.40;69.90
40758;DHT22;26462;47.384;19.218;2023-05-07T16:37:03;21.40;69.40
40758;DHT22;26462;47.384;19.218;2023-05-07T16:39:31;21.40;69.50